Anastasios Samaris

Olheiro-Chefe - PAOK
23 Out 2027
Sábado
Processo

Personalidade

Adaptabilidade (18) Ambição (12) Controvérsia (18) Lealdade (1) Pressão (5) Profissionalismo (10) Espírito Esportivo (16) Temperamento (16)

Perfil

Estilo de Treinamento Democrático
Licença Continental Pro
Determinação 6
Gestão de Pessoas 8
Motivação 14
Disciplina 13
Satisfação no Trabalho
81%
Fadiga
0%
Função Olheiro-Chefe
Salário 41.4K p/s
Contrato 14.03.2028

Desempenho

Comportamento Bom
Eficácia do Treinamento
33%
Desenvolvimento do Jogador
60%
Prevenção de Lesões
55%
Implementação Tática
55%

Eventos Recentes

Recomendou um alvo de transferência agora
Recomendou um alvo de transferência agora
Recomendou um alvo de transferência agora
Recomendou um alvo de transferência agora
Recomendou um alvo de transferência agora
Recomendou um alvo de transferência agora
Avaliou um jogador agora
Avaliou um jogador agora

Monitorando agora

268
Jogador Clube Status Habilidade Confiança Observado Última observação Último voto
Dániel Gazdag New England Revolution Ativo 131 / 117 40% 4 21.10.2027 -
Christos Mouzakitis Hull City Ativo 139 / 143 40% 13 21.10.2027 -
Milton Giménez Defensa y Justicia Ativo 130 / 128 40% 6 21.10.2027 -
Cristian Arango San Jose Earthquakes Ativo 124 / 132 40% 2 21.10.2027 -
Honest Ahanor Atalanta Ativo 132 / 147 40% 2 21.10.2027 -
Nahuel Leivas Montevideo City Torque Ativo 102 / 106 40% 1 21.10.2027 -
Liel Abada Charlotte Football Club Ativo 134 / 130 40% 13 20.10.2027 -
Timo Werner San Jose Earthquakes Ativo 131 / 115 40% 8 20.10.2027 -
Tomás Chancalay Minnesota United FC Ativo 137 / 139 40% 4 20.10.2027 -
Facundo Balatti Penarol Ativo 100 / 118 40% 3 19.10.2027 -
Mads Bomholt Lillestrom Ativo 111 / 108 40% 2 19.10.2027 -
Lewis Morgan Toronto FC Ativo 125 / 127 40% 3 17.10.2027 -
Nicolás Fernández Belgrano Ativo 128 / 127 40% 4 17.10.2027 -
Santiago Sanchez Santa Fe Ativo 138 / 137 40% 5 16.10.2027 -
Rafael Navarro St. Louis CITY SC Ativo 128 / 123 40% 1 16.10.2027 -
Luca Langoni New England Revolution Ativo 141 / 135 40% 8 15.10.2027 -
Ignacio Pérez Antofagasta Ativo 101 / 110 40% 3 15.10.2027 -
Gonzalo Plata Rosenborg Ativo 137 / 128 40% 1 15.10.2027 -
Josh Acheampong Oxford United Ativo 140 / 142 40% 1 15.10.2027 -
Louis Munteanu DC United Ativo 124 / 128 40% 3 13.10.2027 -
Talles Magno New York City Ativo 129 / 146 40% 4 12.10.2027 -
Tadeo Allende Inter Miami CF Ativo 123 / 132 40% 2 12.10.2027 -
João Klauss LA Galaxy Ativo 136 / 121 40% 2 12.10.2027 -
Martín Ojeda Orlando City Ativo 133 / 131 40% 4 11.10.2027 -
Tyson Pearce St. Louis CITY SC Ativo 98 / 108 40% 2 11.10.2027 -
Sergio Falcao Cortulua Ativo 129 / 121 40% 3 11.10.2027 -
Biel La Equidad Ativo 118 / 130 40% 1 11.10.2027 -
Kauã Moraes Cruzeiro Ativo 128 / 132 40% 1 11.10.2027 -
Agustín Medina Lanús Ativo 115 / 120 40% 3 10.10.2027 -
Sebastián Ramírez America de Cali Ativo 104 / 114 40% 1 10.10.2027 -
Duncan McGuire Houston Dynamo Ativo 131 / 118 40% 2 07.10.2027 -
Alexis Cuello San Lorenzo Ativo 124 / 121 40% 2 07.10.2027 -
Bruno Barticciotto Talleres Ativo 130 / 133 40% 3 06.10.2027 -
Jordan Morris Seattle Sounders Ativo 120 / 113 40% 5 05.10.2027 -
Denis Bouanga Los Angeles Football Club Ativo 137 / 138 40% 2 04.10.2027 -
Leonardo Campana New England Revolution Ativo 126 / 129 40% 1 03.10.2027 -
Agustín Anello Philadelphia Union Ativo 127 / 118 40% 2 01.10.2027 -
Bénie Traoré New York City Ativo 134 / 124 40% 2 01.10.2027 -
Christian Kouamé Atletico Nacional Ativo 131 / 126 40% 1 29.09.2027 -
Alejandro Piedrahita Deportivo Pereira Ativo 126 / 128 40% 3 26.09.2027 -
Kelvin Yeboah Minnesota United FC Ativo 135 / 135 40% 4 20.09.2027 -
Marcus Ingvartsen San Diego Football Club Ativo 135 / 117 40% 3 20.09.2027 -
Hirving Lozano San Diego Football Club Ativo 134 / 145 40% 1 16.09.2027 -
Theo Corbeanu Portland Timbers Ativo 131 / 138 40% 1 13.09.2027 -
Mbekezeli Mbokazi Chicago Fire Ativo 127 / 122 40% 1 10.09.2027 -
Matias Siltanen Malmo FF Ativo 121 / 135 40% 1 10.09.2027 -
Mateo Caballero Defensor Sporting Ativo 104 / 112 40% 2 09.09.2027 -
Felipe Obradovich Gimnasia La Plata Ativo 111 / 118 40% 1 09.09.2027 -
Morgan Guilavogui Real Salt Lake Ativo 126 / 130 40% 1 06.09.2027 -
Joel Ezra Enyimba Ativo 91 / 90 40% 2 31.08.2027 -
Tobías Andrada Betis Ativo 120 / 131 40% 1 31.08.2027 -
Alan Morinigo Olimpia Ativo 115 / 122 40% 2 30.08.2027 -
Denis Bouanga Los Angeles Football Club Perdido 133 / 146 40% 1 30.08.2027 -
Cristopher Varela Deportivo La Guaira Ativo 118 / 116 40% 2 28.08.2027 -
Novak Mićović LA Galaxy Ativo 122 / 115 40% 1 28.08.2027 -
Lautaro Amadé Defensa y Justicia Ativo 125 / 122 40% 1 28.08.2027 -
Federico Girotti Alianza Lima Perdido 126 / 119 40% 1 23.08.2027 -
Federico Varese Racing Ativo 114 / 110 40% 2 20.08.2027 -
Nicolás Bolcato Independiente Rivadavia Ativo 115 / 112 40% 1 20.08.2027 -
Sebastián Meza Huracán Ativo 126 / 131 40% 1 20.08.2027 -
Willem Geubbels Lecce Perdido 132 / 128 40% 1 19.08.2027 -
Lorenzo Palmisani Frosinone Ativo 135 / 132 40% 1 17.08.2027 -
Luciano Jachfe Nueva Chicago Ativo 120 / 122 40% 1 17.08.2027 -
Diego Romero Universitario Ativo 126 / 123 40% 1 17.08.2027 -
Marco Carnesecchi Torino Ativo 160 / 162 40% 1 15.08.2027 -
Simone Kosijer Triestina Ativo 98 / 106 40% 2 13.08.2027 -
Eliás Montiel Atlético Madrid Ativo 132 / 143 40% 1 13.08.2027 -
Camilo Rey Domenech Racing Club Ativo 115 / 131 40% 1 12.08.2027 -
Ulises Giménez River Plate Ativo 111 / 121 40% 1 12.08.2027 -
Tasos Douvikas Como Ativo 144 / 145 40% 3 11.08.2027 -
Danilo Veiga Lecce Ativo 127 / 124 40% 2 11.08.2027 -
Antonio Vergara Napoli Ativo 139 / 147 40% 1 11.08.2027 -
Lamine Cissé Peterborough United Ativo 130 / 120 40% 5 08.08.2027 -
Abdul Fatawu Leicester City Ativo 143 / 148 40% 3 08.08.2027 -
Richard Koné Queens Park Rangers Ativo 132 / 122 40% 3 08.08.2027 -
Luca Gemello Perugia Ativo 115 / 116 40% 2 08.08.2027 -
Carl Rushworth Coventry City Ativo 142 / 147 40% 1 08.08.2027 -
Bosun Lawal Stoke City Ativo 132 / 134 40% 17 07.08.2027 -
Nahuel Galardi Maipú Ativo 113 / 110 40% 2 05.08.2027 -
Anthony Patterson Wrexham Ativo 138 / 136 40% 2 05.08.2027 -
Kostantis Tzolakis Hull City Ativo 152 / 144 40% 1 05.08.2027 -
Radek Vítek Middlesbrough Ativo 147 / 147 40% 2 03.08.2027 -
Murphy Cooper Plymouth Argyle Ativo 116 / 112 40% 1 03.08.2027 -
Tyler Goodrham Oxford United Ativo 123 / 122 40% 3 02.08.2027 -
Jovon Makama Norwich City Ativo 127 / 123 40% 5 02.08.2027 -
James Trafford Leeds United Ativo 149 / 156 40% 1 02.08.2027 -
Toby Collyer West Bromwich Albion Ativo 137 / 135 40% 4 31.07.2027 -
Jayden Nelson Bolton Wanderers Ativo 121 / 124 40% 3 31.07.2027 -
Juan Manuel Villalba Boca Juniors Ativo 116 / 123 40% 1 31.07.2027 -
Esteban de Lima Tacuarembo Ativo 94 / 104 40% 1 31.07.2027 -
Yoram Zague Paris Saint-Germain Ativo 124 / 133 40% 1 31.07.2027 -
Tyreece Campbell Charlton Athletic Ativo 125 / 126 40% 2 29.07.2027 -
Othmane Maamma Watford Ativo 129 / 133 40% 2 29.07.2027 -
Kellen Fisher Norwich City Ativo 128 / 125 40% 7 28.07.2027 -
Louie Barry Sheffield Wednesday Ativo 130 / 126 40% 1 28.07.2027 -
Andre Brooks Sheffield United Ativo 133 / 131 40% 5 27.07.2027 -
Ben Chrisene Sheffield Wednesday Ativo 127 / 126 40% 2 27.07.2027 -
Williams Mahlangu SuperSport United Ativo 126 / 131 40% 2 26.07.2027 -
Josh Keeley Luton Town Ativo 130 / 131 40% 1 26.07.2027 -
Justin Devenny Stoke City Ativo 131 / 137 40% 1 25.07.2027 -
Abu Kamara Portsmouth Ativo 119 / 115 40% 1 25.07.2027 -
Isaac Price West Bromwich Albion Ativo 132 / 137 40% 3 24.07.2027 -
Alex Lowry Wycombe Wanderers Ativo 124 / 119 40% 4 24.07.2027 -
Tommaso Cecotti Carpi Ativo 94 / 96 40% 1 24.07.2027 -
Riquelme Thompson-Jones Shrewsbury Town Ativo 109 / 119 40% 1 24.07.2027 -
Tim Iroegbunam Hull City Ativo 142 / 148 40% 8 23.07.2027 -
George Earthy Reading Ativo 120 / 124 40% 1 23.07.2027 -
Lucas Høgsberg Paris Saint-Germain Ativo 141 / 145 40% 1 22.07.2027 -
Dayann Methalie Everton Ativo 137 / 138 40% 1 22.07.2027 -
Camilo Durán Bloemfontein Celtic Perdido 132 / 112 40% 4 19.07.2027 -
David Okereke Cremonese Perdido 127 / 130 40% 1 19.07.2027 -
Alejandro Piedrahita Deportivo Pereira Perdido 129 / 117 40% 1 19.07.2027 -
Alex Robertson Cardiff City Ativo 130 / 125 40% 3 16.07.2027 -
Tobías Ramírez Sevilla Ativo 127 / 127 40% 1 16.07.2027 -
Dylan Lawlor Cardiff City Ativo 116 / 124 40% 1 16.07.2027 -
Samuel Edozie Southampton Ativo 130 / 124 40% 1 16.07.2027 -
Terry Devlin Portsmouth Ativo 125 / 127 40% 4 14.07.2027 -
Charlie Webster Burton Albion Ativo 113 / 117 40% 1 12.07.2027 -
Shea Charles Southampton Ativo 143 / 140 40% 7 10.07.2027 -
Christos Zafeiris FC Copenhagen Ativo 144 / 139 40% 6 09.07.2027 -
Mauricio Amaro Atlanta United FC Ativo 123 / 124 40% 2 09.07.2027 -
Inti Borghetto Patronato Ativo 87 / 103 40% 1 09.07.2027 -
Isma Ruiz Córdoba Ativo 130 / 128 40% 12 06.07.2027 -
Giorgi Chakvetadze Watford Ativo 135 / 137 40% 2 06.07.2027 -
Mathias Jørgensen Blackburn Rovers Ativo 123 / 126 40% 3 05.07.2027 -
Ramón Terrats Getafe Ativo 142 / 137 40% 15 04.07.2027 -
Malik Mothersille Stockport County Ativo 116 / 112 40% 4 04.07.2027 -
Tariq Lamptey Queens Park Rangers Ativo 139 / 140 40% 7 03.07.2027 -
Jason Knight Bristol City Ativo 131 / 130 40% 2 03.07.2027 -
Callum O'Hare Sheffield United Ativo 134 / 136 40% 2 01.07.2027 -
Brooke Norton-Cuffy Hull City Ativo 137 / 141 40% 10 01.07.2027 -
Milan van Ewijk Coventry City Ativo 134 / 129 40% 9 01.07.2027 -
Kasey McAteer Ipswich Town Ativo 131 / 138 40% 3 01.07.2027 -
Cameron Archer Southampton Ativo 130 / 134 40% 1 01.07.2027 -
Amin Sarr Hellas Verona Ativo 131 / 126 40% 1 01.07.2027 -
Tommy Conway Middlesbrough Ativo 136 / 136 40% 6 30.06.2027 -
Jeon Jin-Woo Sheffield Wednesday Ativo 134 / 128 40% 4 28.06.2027 -
Mohamed-Ali Cho Hull City Ativo 135 / 144 40% 1 28.06.2027 -
Daniel Kyerewaa Reading Ativo 117 / 113 40% 1 28.06.2027 -
Finn Azaz Southampton Ativo 130 / 124 40% 3 27.06.2027 -
Oli McBurnie Hull City Ativo 133 / 136 40% 4 25.06.2027 -
Sam Surridge Leeds United Ativo 135 / 127 40% 2 25.06.2027 -
Ali Ahmed Norwich City Ativo 129 / 128 40% 2 25.06.2027 -
Tyrese Campbell Sheffield United Ativo 132 / 131 40% 1 25.06.2027 -
Joe Gelhardt Hull City Ativo 136 / 136 40% 2 23.06.2027 -
Tomáš Rigo Stoke City Ativo 135 / 137 40% 1 23.06.2027 -
Tom Fellows Southampton Ativo 133 / 138 40% 1 22.06.2027 -
Hwang Hee-Chan Wolverhampton Ativo 139 / 135 40% 1 22.06.2027 -
Aune Heggebø West Bromwich Albion Ativo 133 / 131 40% 1 22.06.2027 -
Žan Vipotnik Swansea City Ativo 127 / 122 40% 1 22.06.2027 -
Giannis Apostolakis OFI Ativo 114 / 126 79% 1 21.06.2027 Aprovar
Zeidane Inoussa Swansea City Ativo 128 / 117 40% 1 20.06.2027 -
Jack McGlynn Stoke City Ativo 130 / 127 40% 3 18.06.2027 -
Ronald Swansea City Ativo 128 / 127 40% 3 18.06.2027 -
Isaiah Jones Luton Town Ativo 129 / 131 40% 2 18.06.2027 -
Ethan Galbraith Swansea City Ativo 131 / 136 40% 12 17.06.2027 -
Million Manhoef Stoke City Ativo 127 / 133 40% 3 17.06.2027 -
Welington Southampton Ativo 134 / 130 40% 10 16.06.2027 -
Relebohile Mofokeng Orlando Pirates Ativo 120 / 132 40% 6 14.06.2027 -
Rumarn Burrell Queens Park Rangers Ativo 131 / 119 40% 3 12.06.2027 -
Jack Diamond Stockport County Ativo 124 / 115 40% 1 12.06.2027 -
Florentino Luís Ipswich Town Ativo 142 / 141 40% 15 10.06.2027 -
Koki Saito Queens Park Rangers Ativo 126 / 122 40% 2 06.06.2027 -
Thiago Nuss OFI Ativo 113 / 109 79% 1 03.06.2027 Aprovar
Caio Vidal FC Copenhagen Negociando 128 / 129 63% 1 01.06.2027 Aprovar
Konstantin Tyukavin Arsenal Ativo 132 / 133 66% 1 01.06.2027 Aprovar
Pablo Felipe West Ham United Ativo 137 / 129 40% 5 31.05.2027 -
Valentin Atangana Al-Ahli Ativo 125 / 125 40% 1 31.05.2027 -
Facundo Di Biasi Getafe Ativo 121 / 122 40% 1 31.05.2027 -
Tyrell Malacia Derby County Ativo 142 / 140 40% 5 29.05.2027 -
Tristan Crama Millwall Ativo 125 / 129 40% 1 29.05.2027 -
Edoardo Bove Watford Ativo 131 / 131 40% 1 29.05.2027 -
Álex Valle Como Ativo 141 / 136 40% 8 28.05.2027 -
Jacques Ekomié Wrexham Ativo 132 / 125 40% 5 27.05.2027 -
Lewis Gibson Preston Ativo 125 / 120 40% 3 25.05.2027 -
Guille Rosas Gijón Ativo 143 / 140 40% 1 25.05.2027 -
Max Bird Birmingham Ativo 133 / 129 40% 9 24.05.2027 -
Luke McNally Bristol City Ativo 133 / 126 40% 7 24.05.2027 -
Max Conway Bolton Wanderers Ativo 115 / 123 40% 7 23.05.2027 -
Jacob Greaves Ipswich Town Ativo 136 / 133 40% 6 23.05.2027 -
Oliver Skipp Leicester City Ativo 131 / 132 40% 3 19.05.2027 -
Alfie Doughty Millwall Ativo 125 / 131 40% 4 18.05.2027 -
Max Johnston Derby County Ativo 131 / 129 40% 8 16.05.2027 -
Álvaro Carrillo APOEL Ativo 130 / 117 40% 7 16.05.2027 -
James Morris Leyton Orient Ativo 122 / 121 40% 5 14.05.2027 -
Arda Güler Real Madrid Ativo 148 / 160 40% 1 14.05.2027 -
Fer López Wolverhampton Ativo 131 / 135 40% 1 07.05.2027 -
Mihailo Ivanović Millwall Ativo 123 / 130 40% 1 07.05.2027 -
Callum Doyle Wrexham Ativo 128 / 133 40% 4 05.05.2027 -
Adam Randell Bristol City Ativo 128 / 130 40% 2 05.05.2027 -
Reuell Walters Luton Town Ativo 117 / 122 40% 1 05.05.2027 -
Bobby Thomas Coventry City Ativo 136 / 131 40% 6 03.05.2027 -
Harry Clarke Preston Ativo 125 / 129 40% 4 03.05.2027 -
Andrei Coubiş Lincoln City Ativo 119 / 123 40% 2 02.05.2027 -
Lewis Bate Stockport County Ativo 125 / 115 40% 1 28.04.2027 -
Imrân Louza Watford Ativo 133 / 136 40% 3 23.04.2027 -
Musab Al-Juwayr Al-Qadisiyah Ativo 134 / 126 40% 3 19.04.2027 -
Teden Mengi Luton Town Ativo 123 / 129 40% 1 19.04.2027 -
Alex Opoku Sarfo Aris Ativo 112 / 114 40% 2 15.04.2027 -
Azzedine Ounahi Panathinaikos Ativo 145 / 133 40% 5 08.04.2027 -
Ethan Pye Stockport County Ativo 122 / 120 40% 1 07.04.2027 -
Kristoffer Lund Birmingham Ativo 131 / 126 40% 1 07.04.2027 -
Aidan Morris Middlesbrough Ativo 130 / 126 40% 1 02.04.2027 -
Juraj Badelj Aris Ativo 104 / 105 40% 6 26.03.2027 -
José Córdoba Norwich City Ativo 121 / 120 40% 2 26.03.2027 -
Charalabos Charalabous Aris Ativo 108 / 109 40% 2 23.03.2027 -
Habib Diarra Sunderland Ativo 138 / 149 40% 1 16.03.2027 -
Gustavo Assunção Apollon Ativo 108 / 110 40% 2 15.03.2027 -
Christian Krasnodar Ativo 134 / 131 40% 2 15.03.2027 -
Lucas Da Cunha Como Ativo 148 / 145 40% 1 15.03.2027 -
Filipe Relvas AEK Ativo 134 / 128 40% 1 04.03.2027 -
Marquinhos Spartak Moscow Ativo 137 / 134 40% 3 06.02.2027 -
Eddie Salcedo OFI Rejeitado 116 / 126 40% 2 06.02.2027 Mais informações
Ali Youssef Apollon Ativo 129 / 119 40% 3 04.02.2027 -
Enzo Cabrera AE Kition Ativo 107 / 103 40% 3 03.02.2027 -
Gorka Gorosabel Real Sociedad Ativo 102 / 123 40% 1 03.02.2027 -
Pablo Solari Spartak Moscow Ativo 127 / 129 40% 5 02.02.2027 -
Loum Tchaouna Coventry City Ativo 140 / 145 40% 1 01.02.2027 -
Dimitris Pinakas Nea Salamis Ativo 91 / 87 40% 3 28.01.2027 -
Othmane Boussaid Aris Thessaloniki Ativo 125 / 116 76% 1 25.01.2027 Aprovar
Stanislav Agkatsev TSG Hoffenheim Ativo 132 / 133 66% 1 01.01.2027 Aprovar
Bitello Empoli Ativo 135 / 135 68% 1 01.01.2027 Aprovar
Nicolás Andereggen Ethnikos Achnas Ativo 111 / 102 40% 1 01.01.2027 -
Taiwo Awoniyi Coventry City Ativo 132 / 139 40% 3 31.12.2026 -
Giacomo Raspadori Atalanta Ativo 151 / 143 40% 1 31.12.2026 -
Veljko Birmančević Ferencvaros Ativo 136 / 142 40% 11 29.12.2026 -
Wilson Isidor Sunderland Ativo 136 / 134 40% 1 29.12.2026 -
Zian Flemming Ipswich Town Ativo 135 / 129 40% 3 26.12.2026 -
George Hirst Stoke City Ativo 136 / 138 40% 4 25.12.2026 -
Ivan Toney Al-Ahli Ativo 159 / 137 40% 6 24.12.2026 -
Petar Stanić Ludogorets Ativo 137 / 137 40% 2 24.12.2026 -
Youssef En-Nesyri Al-Ittihad Ativo 151 / 127 40% 10 22.12.2026 -
Masoud Ebrahimi Sepahan Ativo 122 / 121 40% 5 21.12.2026 -
Andrews Tetteh Panathinaikos Ativo 126 / 131 40% 2 19.12.2026 Mais informações
Tomáš Chorý Spartak Moscow Ativo 143 / 146 40% 4 18.12.2026 -
Stefanos Tzimas Brighton Ativo 139 / 143 40% 2 16.12.2026 -
Achraf Bencharki Rapid Wien Ativo 130 / 131 40% 5 05.12.2026 -
Davide Calabria Panathinaikos Ativo 139 / 138 40% 2 04.12.2026 -
Iqraam Rayners Mamelodi Sundowns Ativo 141 / 143 40% 6 26.11.2026 -
Marin Benko Zadar Ativo 132 / 134 40% 4 23.11.2026 -
Steven Bergwijn Al-Ittihad Ativo 140 / 143 40% 4 22.11.2026 -
Ola Brynhildsen Bodo/Glimt Ativo 124 / 122 40% 2 19.11.2026 -
Ollie Watkins Al-Hilal Ativo 154 / 155 40% 11 18.11.2026 -
Oleksandr Zubkov AEK Ativo 139 / 136 40% 2 18.11.2026 -
Oussama Idrissi Ferencvaros Ativo 146 / 141 40% 1 18.11.2026 -
Omar Khribin Al Wahda Ativo 127 / 137 40% 2 16.11.2026 -
Domagoj Drožđek Tractor Ativo 119 / 115 40% 2 12.11.2026 -
Haris Tabaković Red Bull Salzburg Ativo 137 / 141 40% 5 09.11.2026 -
Pep Biel Charlotte Football Club Ativo 135 / 116 40% 3 08.11.2026 -
Facundo Pellistri Panathinaikos Ativo 132 / 136 40% 3 06.11.2026 -
Troy Parrott Betis Ativo 142 / 136 40% 4 06.11.2026 -
Mojmír Chytil Hajduk Split Ativo 135 / 133 40% 2 03.11.2026 -
Sergej Milinković-Savić Al-Hilal Ativo 157 / 154 40% 1 03.11.2026 -
Breel Embolo Atlanta United FC Ativo 133 / 127 40% 4 26.10.2026 -
Jesus Ferreira Seattle Sounders Ativo 120 / 121 40% 2 19.10.2026 -
Josh Sargent Toronto FC Ativo 136 / 142 40% 1 11.10.2026 -
Antony Portland Timbers Ativo 121 / 133 40% 1 07.10.2026 -
Wessam Abou Ali Columbus Crew Ativo 133 / 118 40% 4 06.10.2026 -
Christos Giousis Nea Salamis Ativo 99 / 104 40% 2 05.10.2026 -
Iván Angulo Orlando City Ativo 135 / 122 40% 2 05.10.2026 -
Maurits Kjærgaard Red Bull Salzburg Ativo 124 / 123 40% 1 26.09.2026 -
Manfred Ugalde Spartak Moscow Ativo 129 / 127 40% 3 25.09.2026 -
Konstantinos Balogiannis Apollon Ativo 124 / 114 40% 2 24.09.2026 -
Roger Martínez Al-Shabab Ativo 129 / 124 40% 2 13.09.2026 -
Riqui Puig LA Galaxy Ativo 137 / 144 40% 1 12.09.2026 -
Chuchu Ramírez Nacional Ativo 134 / 136 40% 1 11.09.2026 -
Kaan Kairinen AEK Ativo 131 / 121 40% 1 10.09.2026 -
Alexandr Sobolev Zenit Ativo 134 / 126 40% 1 06.09.2026 -